East Lyndon, Vermont
Current Conditions -  °F | °C
As of 5:55 PM on Friday 19 Dec 2014 (Local Time) from KCDA Reporting Station
Overcast Overcast  
Wind Chill: 11°   Ceiling: 1300
Heat Index: 21°   Visibility: 10mi
Dew Point: 15°   Wind: 9mph
Humidity: 78%   Direction: 300°WNW
Pressure: 30.1"   Gusts: NA
Location:  44.5541°N, 72.0612°W
Report Text: KCDA 192255Z AUTO 30008KT 10SM OVC013 M06/M09 A3010 RMK AO2 T10601093
Loading
Personal Weather Stations






























Interactive Weather Map New forecast layout! Learn more

10-Day Weather Forecast

Advertisements
Track Severe Weather on mobile